sensor_id;sensor_type;location;lat;lon;timestamp;pressure;altitude;pressure_sealevel;temperature;humidity
69524;BME280;56723;42.694;23.286;2023-03-01T03:13:21;95471.69;;;4.27;100.00
69524;BME280;56723;42.694;23.286;2023-03-01T03:15:49;95471.47;;;4.30;100.00
69524;BME280;56723;42.694;23.286;2023-03-01T03:18:16;95487.56;;;4.32;100.00
69524;BME280;56723;42.694;23.286;2023-03-01T03:20:44;95484.06;;;4.33;100.00
69524;BME280;56723;42.694;23.286;2023-03-01T03:23:12;95490.59;;;4.37;100.00
69524;BME280;56723;42.694;23.286;2023-03-01T03:25:39;95488.72;;;4.39;100.00
69524;BME280;56723;42.694;23.286;2023-03-01T03:28:07;95486.97;;;4.40;100.00
69524;BME280;56723;42.694;23.286;2023-03-01T03:30:39;95486.28;;;4.38;100.00
69524;BME280;56723;42.694;23.286;2023-03-01T03:33:06;95472.28;;;4.31;100.00
69524;BME280;56723;42.694;23.286;2023-03-01T06:51:00;95536.56;;;3.94;100.00
69524;BME280;56723;42.694;23.286;2023-03-01T06:53:28;95536.00;;;4.02;100.00
69524;BME280;56723;42.694;23.286;2023-03-01T06:55:56;95535.78;;;4.05;100.00
69524;BME280;56723;42.694;23.286;2023-03-01T06:58:23;95539.41;;;4.13;100.00
69524;BME280;56723;42.694;23.286;2023-03-01T07:00:52;95540.81;;;4.17;100.00
69524;BME280;56723;42.694;23.286;2023-03-01T07:03:19;95541.09;;;4.26;100.00
69524;BME280;56723;42.694;23.286;2023-03-01T07:05:48;95544.22;;;4.29;100.00
69524;BME280;56723;42.694;23.286;2023-03-01T07:08:16;95540.72;;;4.30;100.00
69524;BME280;56723;42.694;23.286;2023-03-01T07:10:43;95542.94;;;4.35;100.00
69524;BME280;56723;42.694;23.286;2023-03-01T07:13:10;95547.75;;;4.39;100.00
69524;BME280;56723;42.694;23.286;2023-03-01T07:15:37;95525.25;;;4.43;100.00
69524;BME280;56723;42.694;23.286;2023-03-01T07:18:04;95530.72;;;4.49;100.00
69524;BME280;56723;42.694;23.286;2023-03-01T07:20:30;95531.91;;;4.57;100.00
69524;BME280;56723;42.694;23.286;2023-03-01T07:22:57;95530.72;;;4.61;100.00
69524;BME280;56723;42.694;23.286;2023-03-01T07:25:25;95527.25;;;4.62;100.00
69524;BME280;56723;42.694;23.286;2023-03-01T07:27:52;95530.38;;;4.65;100.00
69524;BME280;56723;42.694;23.286;2023-03-01T07:30:20;95528.38;;;4.69;100.00
69524;BME280;56723;42.694;23.286;2023-03-01T07:32:47;95527.22;;;4.73;100.00
69524;BME280;56723;42.694;23.286;2023-03-01T07:35:15;95523.59;;;4.75;100.00
69524;BME280;56723;42.694;23.286;2023-03-01T07:37:42;95518.94;;;4.80;100.00
69524;BME280;56723;42.694;23.286;2023-03-01T07:40:09;95523.47;;;4.88;100.00
69524;BME280;56723;42.694;23.286;2023-03-01T07:42:37;95530.13;;;4.91;100.00
69524;BME280;56723;42.694;23.286;2023-03-01T07:45:05;95525.59;;;4.94;100.00
69524;BME280;56723;42.694;23.286;2023-03-01T07:47:33;95523.72;;;4.96;100.00
69524;BME280;56723;42.694;23.286;2023-03-01T07:50:00;95526.50;;;5.04;100.00
69524;BME280;56723;42.694;23.286;2023-03-01T07:52:28;95525.22;;;5.10;100.00
69524;BME280;56723;42.694;23.286;2023-03-01T07:54:55;95517.63;;;5.08;100.00
69524;BME280;56723;42.694;23.286;2023-03-01T07:57:22;95491.97;;;4.97;100.00
69524;BME280;56723;42.694;23.286;2023-03-01T07:59:49;95511.19;;;5.14;100.00
69524;BME280;56723;42.694;23.286;2023-03-01T08:02:16;95511.50;;;5.20;100.00
69524;BME280;56723;42.694;23.286;2023-03-01T08:04:43;95519.09;;;5.22;100.00
69524;BME280;56723;42.694;23.286;2023-03-01T08:07:10;95519.44;;;5.29;100.00
69524;BME280;56723;42.694;23.286;2023-03-01T08:09:37;95508.69;;;5.35;100.00
69524;BME280;56723;42.694;23.286;2023-03-01T08:12:05;95504.09;;;5.38;100.00
69524;BME280;56723;42.694;23.286;2023-03-01T08:14:32;95512.50;;;5.40;100.00
69524;BME280;56723;42.694;23.286;2023-03-01T08:17:00;95506.44;;;5.41;100.00
69524;BME280;56723;42.694;23.286;2023-03-01T08:19:29;95507.94;;;5.44;99.82
69524;BME280;56723;42.694;23.286;2023-03-01T08:21:57;95499.66;;;5.40;99.36
69524;BME280;56723;42.694;23.286;2023-03-01T08:24:25;95500.81;;;5.47;99.72
69524;BME280;56723;42.694;23.286;2023-03-01T08:26:52;95505.84;;;5.49;99.15
69524;BME280;56723;42.694;23.286;2023-03-01T08:29:19;95497.66;;;5.55;98.89
69524;BME280;56723;42.694;23.286;2023-03-01T08:31:47;95506.19;;;5.55;98.57
69524;BME280;56723;42.694;23.286;2023-03-01T08:34:17;95501.84;;;5.56;97.81
69524;BME280;56723;42.694;23.286;2023-03-01T08:36:45;95504.03;;;5.61;98.38
69524;BME280;56723;42.694;23.286;2023-03-01T08:39:15;95499.72;;;5.61;98.01
69524;BME280;56723;42.694;23.286;2023-03-01T08:41:42;95507.06;;;5.66;97.93
69524;BME280;56723;42.694;23.286;2023-03-01T08:44:12;95495.34;;;5.73;96.83
69524;BME280;56723;42.694;23.286;2023-03-01T08:46:41;95500.78;;;5.79;96.87
69524;BME280;56723;42.694;23.286;2023-03-01T08:49:11;95498.81;;;5.83;96.24
69524;BME280;56723;42.694;23.286;2023-03-01T08:51:40;95498.91;;;5.93;95.63
69524;BME280;56723;42.694;23.286;2023-03-01T08:54:11;95497.97;;;5.94;94.83
69524;BME280;56723;42.694;23.286;2023-03-01T08:56:38;95497.69;;;5.97;93.63
69524;BME280;56723;42.694;23.286;2023-03-01T08:59:05;95493.00;;;6.02;92.45
69524;BME280;56723;42.694;23.286;2023-03-01T09:01:32;95504.97;;;6.12;92.37
69524;BME280;56723;42.694;23.286;2023-03-01T09:03:59;95501.66;;;6.21;90.85
69524;BME280;56723;42.694;23.286;2023-03-01T09:06:26;95498.59;;;6.28;90.17
69524;BME280;56723;42.694;23.286;2023-03-01T09:08:53;95502.38;;;6.33;88.74
69524;BME280;56723;42.694;23.286;2023-03-01T09:11:22;95495.34;;;6.35;88.43
69524;BME280;56723;42.694;23.286;2023-03-01T09:13:49;95507.03;;;6.39;88.68
69524;BME280;56723;42.694;23.286;2023-03-01T09:16:17;95499.75;;;6.44;87.54
69524;BME280;56723;42.694;23.286;2023-03-01T09:18:49;95495.09;;;6.38;87.79
69524;BME280;56723;42.694;23.286;2023-03-01T09:21:18;95497.00;;;6.36;88.03
69524;BME280;56723;42.694;23.286;2023-03-01T09:24:02;95491.59;;;6.39;87.48
69524;BME280;56723;42.694;23.286;2023-03-01T09:26:29;95495.56;;;6.43;87.50
69524;BME280;56723;42.694;23.286;2023-03-01T09:28:57;95494.06;;;6.50;87.17
69524;BME280;56723;42.694;23.286;2023-03-01T09:31:24;95489.22;;;6.57;86.68
69524;BME280;56723;42.694;23.286;2023-03-01T09:33:53;95501.97;;;6.58;86.59
69524;BME280;56723;42.694;23.286;2023-03-01T09:36:23;95492.38;;;6.60;86.38
69524;BME280;56723;42.694;23.286;2023-03-01T09:38:52;95495.75;;;6.61;86.52
69524;BME280;56723;42.694;23.286;2023-03-01T09:44:29;95484.97;;;6.67;86.75
69524;BME280;56723;42.694;23.286;2023-03-01T09:46:58;95471.78;;;6.70;86.34
69524;BME280;56723;42.694;23.286;2023-03-01T09:49:36;95482.78;;;6.72;86.93
69524;BME280;56723;42.694;23.286;2023-03-01T09:54:41;95469.56;;;6.86;86.29
69524;BME280;56723;42.694;23.286;2023-03-01T09:59:59;95471.47;;;6.94;85.05
69524;BME280;56723;42.694;23.286;2023-03-01T10:02:39;95455.19;;;6.84;85.07
69524;BME280;56723;42.694;23.286;2023-03-01T10:10:38;95467.44;;;7.01;84.72
69524;BME280;56723;42.694;23.286;2023-03-01T10:13:18;95463.31;;;6.89;84.30
69524;BME280;56723;42.694;23.286;2023-03-01T10:15:53;95463.06;;;6.92;85.01
69524;BME280;56723;42.694;23.286;2023-03-01T10:18:25;95448.72;;;6.99;84.49
69524;BME280;56723;42.694;23.286;2023-03-01T10:21:08;95456.56;;;7.07;84.23
69524;BME280;56723;42.694;23.286;2023-03-01T10:23:38;95447.63;;;7.11;83.76
69524;BME280;56723;42.694;23.286;2023-03-01T10:29:06;95449.00;;;7.25;83.57
69524;BME280;56723;42.694;23.286;2023-03-01T10:31:52;95437.63;;;7.27;83.08
69524;BME280;56723;42.694;23.286;2023-03-01T10:34:27;95440.91;;;7.39;83.36
69524;BME280;56723;42.694;23.286;2023-03-01T10:37:11;95434.38;;;7.54;82.31
69524;BME280;56723;42.694;23.286;2023-03-01T10:40:10;95436.41;;;7.60;81.34
69524;BME280;56723;42.694;23.286;2023-03-01T10:42:48;95435.88;;;7.57;81.09
69524;BME280;56723;42.694;23.286;2023-03-01T10:48:20;95428.81;;;7.49;80.74
69524;BME280;56723;42.694;23.286;2023-03-01T10:51:04;95432.88;;;7.33;81.61
69524;BME280;56723;42.694;23.286;2023-03-01T10:53:35;95442.78;;;7.27;82.27
69524;BME280;56723;42.694;23.286;2023-03-01T10:56:14;95442.38;;;7.22;81.66
69524;BME280;56723;42.694;23.286;2023-03-01T10:59:02;95435.00;;;7.08;81.82
69524;BME280;56723;42.694;23.286;2023-03-01T11:01:34;95434.59;;;6.93;83.05
69524;BME280;56723;42.694;23.286;2023-03-01T11:06:33;95444.53;;;7.17;82.07
69524;BME280;56723;42.694;23.286;2023-03-01T11:09:19;95442.09;;;7.25;81.39
69524;BME280;56723;42.694;23.286;2023-03-01T11:11:52;95443.84;;;7.25;80.75
69524;BME280;56723;42.694;23.286;2023-03-01T11:14:24;95436.28;;;7.23;81.28
69524;BME280;56723;42.694;23.286;2023-03-01T11:17:02;95431.78;;;7.25;81.63
69524;BME280;56723;42.694;23.286;2023-03-01T11:19:31;95441.44;;;7.23;81.56
69524;BME280;56723;42.694;23.286;2023-03-01T11:24:39;95439.25;;;7.19;82.46
69524;BME280;56723;42.694;23.286;2023-03-01T11:27:28;95428.69;;;7.22;81.72
69524;BME280;56723;42.694;23.286;2023-03-01T11:29:59;95418.75;;;7.17;82.07
69524;BME280;56723;42.694;23.286;2023-03-01T11:32:35;95421.88;;;7.11;83.11
69524;BME280;56723;42.694;23.286;2023-03-01T11:35:18;95426.88;;;7.13;82.25
69524;BME280;56723;42.694;23.286;2023-03-01T11:40:46;95410.47;;;7.14;82.08
69524;BME280;56723;42.694;23.286;2023-03-01T11:57:17;95387.16;;;7.15;83.36
69524;BME280;56723;42.694;23.286;2023-03-01T12:06:02;95394.34;;;7.02;83.99
69524;BME280;56723;42.694;23.286;2023-03-01T12:16:38;95376.84;;;7.15;84.73
69524;BME280;56723;42.694;23.286;2023-03-01T12:22:15;95375.91;;;7.36;83.25
69524;BME280;56723;42.694;23.286;2023-03-01T12:27:59;95366.50;;;7.44;82.76
69524;BME280;56723;42.694;23.286;2023-03-01T12:38:33;95352.53;;;7.47;81.90
69524;BME280;56723;42.694;23.286;2023-03-01T12:41:21;95355.13;;;7.47;81.83
69524;BME280;56723;42.694;23.286;2023-03-01T12:44:01;95344.13;;;7.45;81.80
69524;BME280;56723;42.694;23.286;2023-03-01T12:49:17;95354.31;;;7.56;81.05
69524;BME280;56723;42.694;23.286;2023-03-01T12:52:02;95360.53;;;7.53;81.01
69524;BME280;56723;42.694;23.286;2023-03-01T12:54:32;95368.41;;;7.52;81.38
69524;BME280;56723;42.694;23.286;2023-03-01T12:57:12;95362.16;;;7.45;81.64
69524;BME280;56723;42.694;23.286;2023-03-01T12:59:59;95358.66;;;7.46;82.48
69524;BME280;56723;42.694;23.286;2023-03-01T13:05:40;95355.69;;;7.41;82.20
69524;BME280;56723;42.694;23.286;2023-03-01T13:08:18;95354.19;;;7.38;82.79
69524;BME280;56723;42.694;23.286;2023-03-01T13:10:49;95355.28;;;7.36;82.81
69524;BME280;56723;42.694;23.286;2023-03-01T13:13:25;95359.47;;;7.37;83.49
69524;BME280;56723;42.694;23.286;2023-03-01T13:15:53;95360.00;;;7.50;82.83
69524;BME280;56723;42.694;23.286;2023-03-01T13:20:51;95356.34;;;7.52;82.38
69524;BME280;56723;42.694;23.286;2023-03-01T13:28:40;95364.88;;;7.43;83.72
69524;BME280;56723;42.694;23.286;2023-03-01T13:31:11;95363.41;;;7.41;84.06
69524;BME280;56723;42.694;23.286;2023-03-01T13:38:56;95357.59;;;7.19;85.23
69524;BME280;56723;42.694;23.286;2023-03-01T13:44:35;95353.66;;;7.15;86.35
69524;BME280;56723;42.694;23.286;2023-03-01T13:47:15;95364.09;;;7.14;86.88
69524;BME280;56723;42.694;23.286;2023-03-01T13:50:00;95363.03;;;7.16;87.01
69524;BME280;56723;42.694;23.286;2023-03-01T13:55:06;95352.69;;;7.07;87.09
69524;BME280;56723;42.694;23.286;2023-03-01T13:57:44;95349.59;;;7.03;88.00
69524;BME280;56723;42.694;23.286;2023-03-01T14:00:31;95348.50;;;6.96;88.03
69524;BME280;56723;42.694;23.286;2023-03-01T14:05:32;95355.84;;;7.01;89.04
69524;BME280;56723;42.694;23.286;2023-03-01T14:07:59;95356.66;;;7.01;88.73
69524;BME280;56723;42.694;23.286;2023-03-01T14:13:26;95347.03;;;7.03;88.48
69524;BME280;56723;42.694;23.286;2023-03-01T14:21:29;95345.41;;;7.02;89.01
69524;BME280;56723;42.694;23.286;2023-03-01T14:23:57;95337.09;;;7.08;88.36
69524;BME280;56723;42.694;23.286;2023-03-01T14:26:25;95339.69;;;7.08;89.35
69524;BME280;56723;42.694;23.286;2023-03-01T14:28:52;95339.00;;;7.06;89.24
69524;BME280;56723;42.694;23.286;2023-03-01T14:31:35;95338.34;;;7.04;89.71
69524;BME280;56723;42.694;23.286;2023-03-01T14:34:22;95341.06;;;7.03;89.53
69524;BME280;56723;42.694;23.286;2023-03-01T14:36:49;95333.56;;;7.09;89.76
69524;BME280;56723;42.694;23.286;2023-03-01T14:39:19;95341.03;;;7.12;89.03
69524;BME280;56723;42.694;23.286;2023-03-01T14:41:47;95341.72;;;7.14;88.61
69524;BME280;56723;42.694;23.286;2023-03-01T14:44:23;95324.47;;;7.05;89.06
69524;BME280;56723;42.694;23.286;2023-03-01T14:46:53;95344.84;;;6.99;89.46
69524;BME280;56723;42.694;23.286;2023-03-01T14:49:24;95336.84;;;6.92;90.13
69524;BME280;56723;42.694;23.286;2023-03-01T14:54:39;95342.25;;;6.89;90.69
69524;BME280;56723;42.694;23.286;2023-03-01T14:57:15;95340.09;;;6.84;91.50
69524;BME280;56723;42.694;23.286;2023-03-01T14:59:43;95337.25;;;6.78;91.73
69524;BME280;56723;42.694;23.286;2023-03-01T15:02:17;95329.91;;;6.64;92.33
69524;BME280;56723;42.694;23.286;2023-03-01T15:04:52;95330.97;;;6.61;92.33
69524;BME280;56723;42.694;23.286;2023-03-01T15:07:26;95326.34;;;6.55;93.33
69524;BME280;56723;42.694;23.286;2023-03-01T15:09:54;95324.16;;;6.50;93.75
69524;BME280;56723;42.694;23.286;2023-03-01T15:12:41;95317.94;;;6.43;93.46
69524;BME280;56723;42.694;23.286;2023-03-01T15:15:31;95332.31;;;6.46;93.72
69524;BME280;56723;42.694;23.286;2023-03-01T15:18:22;95332.84;;;6.40;93.66
69524;BME280;56723;42.694;23.286;2023-03-01T15:20:52;95335.09;;;6.33;94.41
69524;BME280;56723;42.694;23.286;2023-03-01T15:23:27;95336.34;;;6.29;94.59
69524;BME280;56723;42.694;23.286;2023-03-01T15:25:56;95329.00;;;6.24;94.94
69524;BME280;56723;42.694;23.286;2023-03-01T15:28:29;95319.66;;;6.23;95.33
69524;BME280;56723;42.694;23.286;2023-03-01T15:31:23;95336.28;;;6.19;95.94
69524;BME280;56723;42.694;23.286;2023-03-01T15:33:51;95336.41;;;6.18;96.19
69524;BME280;56723;42.694;23.286;2023-03-01T15:36:54;95332.22;;;6.17;96.76
69524;BME280;56723;42.694;23.286;2023-03-01T15:41:54;95331.13;;;6.10;97.14
69524;BME280;56723;42.694;23.286;2023-03-01T15:44:28;95328.81;;;6.07;97.61
69524;BME280;56723;42.694;23.286;2023-03-01T15:47:26;95329.75;;;6.06;97.73
69524;BME280;56723;42.694;23.286;2023-03-01T15:49:54;95326.75;;;6.01;97.79
69524;BME280;56723;42.694;23.286;2023-03-01T15:54:58;95320.06;;;5.88;98.38
69524;BME280;56723;42.694;23.286;2023-03-01T15:57:25;95318.53;;;5.86;99.10
69524;BME280;56723;42.694;23.286;2023-03-01T15:59:52;95320.19;;;5.87;100.00
69524;BME280;56723;42.694;23.286;2023-03-01T16:02:20;95310.94;;;5.84;98.89
69524;BME280;56723;42.694;23.286;2023-03-01T16:04:47;95313.41;;;5.86;100.00
69524;BME280;56723;42.694;23.286;2023-03-01T16:07:17;95322.88;;;5.85;99.47
69524;BME280;56723;42.694;23.286;2023-03-01T16:09:44;95311.41;;;5.89;100.00
69524;BME280;56723;42.694;23.286;2023-03-01T16:12:15;95319.13;;;5.89;100.00
69524;BME280;56723;42.694;23.286;2023-03-01T16:14:43;95325.44;;;5.85;100.00
69524;BME280;56723;42.694;23.286;2023-03-01T16:17:16;95325.69;;;5.82;100.00
69524;BME280;56723;42.694;23.286;2023-03-01T16:19:47;95321.75;;;5.78;99.90
69524;BME280;56723;42.694;23.286;2023-03-01T16:22:14;95318.78;;;5.73;100.00
69524;BME280;56723;42.694;23.286;2023-03-01T16:24:40;95320.66;;;5.71;100.00
69524;BME280;56723;42.694;23.286;2023-03-01T16:27:07;95322.41;;;5.71;100.00
69524;BME280;56723;42.694;23.286;2023-03-01T16:29:34;95321.41;;;5.62;100.00
69524;BME280;56723;42.694;23.286;2023-03-01T16:32:02;95319.53;;;5.64;100.00
69524;BME280;56723;42.694;23.286;2023-03-01T16:34:29;95329.00;;;5.64;100.00
69524;BME280;56723;42.694;23.286;2023-03-01T16:36:56;95322.91;;;5.65;100.00
69524;BME280;56723;42.694;23.286;2023-03-01T16:39:23;95326.53;;;5.62;100.00
69524;BME280;56723;42.694;23.286;2023-03-01T16:41:50;95313.00;;;5.60;100.00
69524;BME280;56723;42.694;23.286;2023-03-01T16:44:17;95320.72;;;5.60;100.00
69524;BME280;56723;42.694;23.286;2023-03-01T16:46:44;95314.88;;;5.58;100.00
69524;BME280;56723;42.694;23.286;2023-03-01T16:49:11;95309.75;;;5.58;100.00
69524;BME280;56723;42.694;23.286;2023-03-01T16:51:38;95318.38;;;5.57;100.00
69524;BME280;56723;42.694;23.286;2023-03-01T16:54:05;95310.84;;;5.55;100.00
69524;BME280;56723;42.694;23.286;2023-03-01T16:56:32;95314.47;;;5.53;99.86
69524;BME280;56723;42.694;23.286;2023-03-01T16:59:01;95315.66;;;5.49;99.21
69524;BME280;56723;42.694;23.286;2023-03-01T17:01:32;95316.47;;;5.49;99.34
69524;BME280;56723;42.694;23.286;2023-03-01T17:04:08;95318.97;;;5.40;99.46
69524;BME280;56723;42.694;23.286;2023-03-01T17:06:36;95311.94;;;5.42;99.92
69524;BME280;56723;42.694;23.286;2023-03-01T17:09:03;95311.94;;;5.42;100.00
69524;BME280;56723;42.694;23.286;2023-03-01T17:11:30;95315.47;;;5.41;100.00
69524;BME280;56723;42.694;23.286;2023-03-01T17:13:58;95316.41;;;5.40;100.00
69524;BME280;56723;42.694;23.286;2023-03-01T17:16:24;95316.41;;;5.40;100.00
69524;BME280;56723;42.694;23.286;2023-03-01T17:18:53;95319.25;;;5.37;100.00
69524;BME280;56723;42.694;23.286;2023-03-01T17:21:20;95324.50;;;5.35;100.00
69524;BME280;56723;42.694;23.286;2023-03-01T17:23:47;95324.50;;;5.35;100.00
69524;BME280;56723;42.694;23.286;2023-03-01T17:26:16;95323.94;;;5.32;100.00
69524;BME280;56723;42.694;23.286;2023-03-01T17:28:42;95320.69;;;5.30;100.00
69524;BME280;56723;42.694;23.286;2023-03-01T17:31:10;95320.94;;;5.27;100.00
69524;BME280;56723;42.694;23.286;2023-03-01T17:33:37;95320.09;;;5.26;100.00
69524;BME280;56723;42.694;23.286;2023-03-01T17:36:04;95321.75;;;5.27;100.00
69524;BME280;56723;42.694;23.286;2023-03-01T17:38:31;95325.38;;;5.25;100.00
69524;BME280;56723;42.694;23.286;2023-03-01T17:40:59;95322.81;;;5.25;100.00
69524;BME280;56723;42.694;23.286;2023-03-01T17:43:26;95335.66;;;5.25;100.00
69524;BME280;56723;42.694;23.286;2023-03-01T17:45:54;95338.22;;;5.25;100.00
69524;BME280;56723;42.694;23.286;2023-03-01T17:48:22;95333.06;;;5.25;100.00
69524;BME280;56723;42.694;23.286;2023-03-01T17:50:49;95337.16;;;5.27;100.00
69524;BME280;56723;42.694;23.286;2023-03-01T17:53:16;95334.81;;;5.24;100.00
69524;BME280;56723;42.694;23.286;2023-03-01T17:55:44;95341.72;;;5.23;100.00
69524;BME280;56723;42.694;23.286;2023-03-01T17:58:12;95339.41;;;5.20;100.00
69524;BME280;56723;42.694;23.286;2023-03-01T18:00:40;95336.28;;;5.17;100.00
69524;BME280;56723;42.694;23.286;2023-03-01T18:03:07;95336.28;;;5.17;100.00
69524;BME280;56723;42.694;23.286;2023-03-01T18:05:35;95332.34;;;5.13;100.00
69524;BME280;56723;42.694;23.286;2023-03-01T18:08:04;95338.66;;;5.09;100.00
69524;BME280;56723;42.694;23.286;2023-03-01T18:10:32;95343.22;;;5.05;100.00
69524;BME280;56723;42.694;23.286;2023-03-01T18:12:59;95345.09;;;5.03;100.00
69524;BME280;56723;42.694;23.286;2023-03-01T18:15:26;95350.50;;;5.00;100.00
69524;BME280;56723;42.694;23.286;2023-03-01T18:17:54;95342.78;;;5.00;100.00
69524;BME280;56723;42.694;23.286;2023-03-01T18:20:21;95347.22;;;4.98;100.00
69524;BME280;56723;42.694;23.286;2023-03-01T18:22:48;95346.66;;;4.95;100.00
69524;BME280;56723;42.694;23.286;2023-03-01T18:25:16;95349.91;;;4.97;100.00
69524;BME280;56723;42.694;23.286;2023-03-01T18:27:43;95344.19;;;4.93;100.00
69524;BME280;56723;42.694;23.286;2023-03-01T18:30:10;95342.81;;;4.89;100.00
69524;BME280;56723;42.694;23.286;2023-03-01T18:32:37;95340.94;;;4.91;100.00
69524;BME280;56723;42.694;23.286;2023-03-01T18:35:06;95345.84;;;4.94;100.00
69524;BME280;56723;42.694;23.286;2023-03-01T18:37:33;95342.44;;;4.94;100.00
69524;BME280;56723;42.694;23.286;2023-03-01T18:40:00;95348.75;;;4.90;100.00
69524;BME280;56723;42.694;23.286;2023-03-01T18:42:27;95347.94;;;4.89;100.00
69524;BME280;56723;42.694;23.286;2023-03-01T18:44:54;95351.69;;;4.85;100.00
69524;BME280;56723;42.694;23.286;2023-03-01T18:47:21;95357.75;;;4.84;100.00
69524;BME280;56723;42.694;23.286;2023-03-01T18:49:48;95358.69;;;4.83;100.00
69524;BME280;56723;42.694;23.286;2023-03-01T18:52:15;95368.31;;;4.81;100.00
69524;BME280;56723;42.694;23.286;2023-03-01T18:54:43;95370.06;;;4.80;100.00
69524;BME280;56723;42.694;23.286;2023-03-01T18:57:10;95366.66;;;4.80;100.00
69524;BME280;56723;42.694;23.286;2023-03-01T18:59:37;95364.78;;;4.82;100.00
69524;BME280;56723;42.694;23.286;2023-03-01T19:02:04;95361.25;;;4.83;100.00
69524;BME280;56723;42.694;23.286;2023-03-01T19:04:30;95362.22;;;4.82;100.00
69524;BME280;56723;42.694;23.286;2023-03-01T19:06:57;95362.34;;;4.80;100.00
69524;BME280;56723;42.694;23.286;2023-03-01T19:09:27;95357.22;;;4.80;100.00
69524;BME280;56723;42.694;23.286;2023-03-01T19:11:54;95353.84;;;4.80;100.00
69524;BME280;56723;42.694;23.286;2023-03-01T19:14:24;95353.50;;;4.73;100.00
69524;BME280;56723;42.694;23.286;2023-03-01T19:16:51;95360.13;;;4.76;100.00
69524;BME280;56723;42.694;23.286;2023-03-01T19:19:18;95365.50;;;4.73;100.00
69524;BME280;56723;42.694;23.286;2023-03-01T19:21:45;95365.63;;;4.71;100.00
69524;BME280;56723;42.694;23.286;2023-03-01T19:24:28;95364.00;;;4.70;100.00
69524;BME280;56723;42.694;23.286;2023-03-01T19:26:56;95361.66;;;4.67;100.00
69524;BME280;56723;42.694;23.286;2023-03-01T19:29:23;95364.47;;;4.64;100.00
69524;BME280;56723;42.694;23.286;2023-03-01T19:31:50;95373.25;;;4.62;100.00
69524;BME280;56723;42.694;23.286;2023-03-01T19:34:17;95372.31;;;4.63;100.00
69524;BME280;56723;42.694;23.286;2023-03-01T19:36:44;95379.19;;;4.62;100.00
69524;BME280;56723;42.694;23.286;2023-03-01T19:39:13;95372.44;;;4.61;100.00
69524;BME280;56723;42.694;23.286;2023-03-01T19:41:40;95375.00;;;4.61;100.00
69524;BME280;56723;42.694;23.286;2023-03-01T19:44:08;95376.75;;;4.61;100.00
69524;BME280;56723;42.694;23.286;2023-03-01T19:46:35;95380.25;;;4.60;100.00
69524;BME280;56723;42.694;23.286;2023-03-01T19:49:03;95391.34;;;4.60;100.00
69524;BME280;56723;42.694;23.286;2023-03-01T19:51:31;95381.31;;;4.57;100.00
69524;BME280;56723;42.694;23.286;2023-03-01T19:54:05;95400.53;;;4.63;100.00
69524;BME280;56723;42.694;23.286;2023-03-01T19:56:32;95397.97;;;4.63;100.00
69524;BME280;56723;42.694;23.286;2023-03-01T19:59:00;95394.47;;;4.64;100.00
69524;BME280;56723;42.694;23.286;2023-03-01T20:01:30;95398.53;;;4.66;100.00
69524;BME280;56723;42.694;23.286;2023-03-01T20:04:00;95382.44;;;4.64;100.00
69524;BME280;56723;42.694;23.286;2023-03-01T20:06:28;95389.78;;;4.69;100.00
69524;BME280;56723;42.694;23.286;2023-03-01T20:08:56;95396.53;;;4.70;100.00
69524;BME280;56723;42.694;23.286;2023-03-01T20:11:24;95403.31;;;4.71;100.00
69524;BME280;56723;42.694;23.286;2023-03-01T20:13:50;95405.06;;;4.70;100.00
69524;BME280;56723;42.694;23.286;2023-03-01T20:16:18;95404.25;;;4.70;100.00
69524;BME280;56723;42.694;23.286;2023-03-01T20:18:46;95410.31;;;4.69;100.00
69524;BME280;56723;42.694;23.286;2023-03-01T20:21:13;95407.50;;;4.72;100.00
69524;BME280;56723;42.694;23.286;2023-03-01T20:23:51;95399.22;;;4.68;100.00
69524;BME280;56723;42.694;23.286;2023-03-01T20:26:19;95411.72;;;4.73;100.00
69524;BME280;56723;42.694;23.286;2023-03-01T20:28:49;95409.16;;;4.73;100.00
69524;BME280;56723;42.694;23.286;2023-03-01T20:31:18;95416.03;;;4.72;100.00
69524;BME280;56723;42.694;23.286;2023-03-01T20:33:46;95412.66;;;4.72;100.00
69524;BME280;56723;42.694;23.286;2023-03-01T20:36:13;95401.56;;;4.71;100.00
69524;BME280;56723;42.694;23.286;2023-03-01T20:38:41;95404.25;;;4.70;100.00
69524;BME280;56723;42.694;23.286;2023-03-01T20:41:10;95405.06;;;4.70;100.00
69524;BME280;56723;42.694;23.286;2023-03-01T20:43:39;95409.50;;;4.68;100.00
69524;BME280;56723;42.694;23.286;2023-03-01T20:46:08;95405.19;;;4.69;100.00
69524;BME280;56723;42.694;23.286;2023-03-01T20:48:37;95410.31;;;4.69;100.00
69524;BME280;56723;42.694;23.286;2023-03-01T20:51:06;95406.34;;;4.65;100.00
69524;BME280;56723;42.694;23.286;2023-03-01T20:53:34;95402.84;;;4.66;100.00
69524;BME280;56723;42.694;23.286;2023-03-01T20:56:02;95402.03;;;4.65;100.00
69524;BME280;56723;42.694;23.286;2023-03-01T20:58:30;95401.38;;;4.63;100.00
69524;BME280;56723;42.694;23.286;2023-03-01T21:01:02;95411.47;;;4.65;100.00
69524;BME280;56723;42.694;23.286;2023-03-01T21:03:30;95410.94;;;4.61;100.00
69524;BME280;56723;42.694;23.286;2023-03-01T21:05:58;95413.38;;;4.63;100.00
69524;BME280;56723;42.694;23.286;2023-03-01T21:08:25;95418.50;;;4.63;100.00
69524;BME280;56723;42.694;23.286;2023-03-01T21:10:54;95410.81;;;4.63;100.00
69524;BME280;56723;42.694;23.286;2023-03-01T21:13:22;95408.25;;;4.63;100.00
69524;BME280;56723;42.694;23.286;2023-03-01T21:15:58;95403.94;;;4.63;100.00
69524;BME280;56723;42.694;23.286;2023-03-01T21:18:31;95404.59;;;4.65;100.00
69524;BME280;56723;42.694;23.286;2023-03-01T21:21:03;95409.88;;;4.64;100.00
69524;BME280;56723;42.694;23.286;2023-03-01T21:23:31;95405.53;;;4.64;100.00
69524;BME280;56723;42.694;23.286;2023-03-01T21:26:09;95404.03;;;4.62;100.00
69524;BME280;56723;42.694;23.286;2023-03-01T21:28:38;95413.38;;;4.63;100.00
69524;BME280;56723;42.694;23.286;2023-03-01T21:31:10;95411.47;;;4.65;100.00
69524;BME280;56723;42.694;23.286;2023-03-01T21:33:38;95410.34;;;4.58;100.00